TFM - Tactical Decision Aid (Experimental) INFO Settings
ID: Runway Winds: CIG/VIS Threshold: METAR Board: Map:

KCAE - Columbia Metro

Updated at: 0302 UTC 21 Oct 2017
Latest TAF at: 0235 UTC 21 Oct 2017

TAF Board

Time0256Z21/04Z21/05Z21/06Z21/07Z21/08Z21/09Z21/10Z21/11Z21/12Z21/13Z21/14Z21/15Z21/16Z
TypeOBSPRVLPRVLPRVLPRVLPRVLPRVLPRVLPRVLPRVLPRVLPRVLPRVLPRVL
VIS10>6>6>6>6>6>6>6>6>6>6>6>6>6
CIG----------------------------
CoverCLRSKCSKCSKCSKCSKCSKCSKCSKCSKCSKCFEWFEWFEW
FltCatVFRVFRVFRVFRVFRVFRVFRVFRVFRVFRVFRVFRVFRVFR
WX----------------------------
WDirVRBVRBVRBVRBVRBVRBVRBVRBVRBVRBVRB909090
WSpd00000000000444
WGst----------------------------
TAF
KCAE 210235Z 2103/2124 00000KT P6SM SKC
  FM211330 09004KT P6SM FEW250


METAR
KCAE 210256Z 00000KT 10SM CLR 14/12 A3023 RMK AO2 SLP236 T01390122 53014
KCAE 210156Z 24003KT 10SM CLR 14/12 A3022 RMK AO2 SLP231 T01440122

TAF/METAR Board Legend

Potential Impact
  None Marginal Slight Moderate High
Visibility (sm) >5 3≤X≤5 2≤X<3 0.5≤X<2 <0.5
Ceiling (100 ft) >30 10≤X≤30 6≤X<10 2≤X<6 <2
Wind Speed (kt) <10 10≤X<20 20≤X<30 ≥30
Wind Gust (kt) <15 15≤X<25 25≤X<35 ≥35
Weather No Wx Reported VCTS -TS,-FZRA TS,FZRA +TS,+FZRA